Time;durP1;ratioP1;P1;durP2;ratioP2;P2;SDS_P1;SDS_P2;PMS_P1;PMS_P2;Temp;Humidity;BMP_temperature;BMP_pressure;BME280_temperature;BME280_humidity;BME280_pressure;Samples;Min_cycle;Max_cycle;Signal;HPM_P1;HPM_P2
2023/08/26 00:01:52;;;;;;;0.50;0.40;;;18.20;99.90;;;;;;5039252;28;20452;-83
2023/08/26 00:04:21;;;;;;;0.50;0.40;;;18.20;99.90;;;;;;5038589;28;20437;-83
2023/08/26 00:06:48;;;;;;;0.50;0.30;;;18.10;99.90;;;;;;5039307;28;20440;-83
2023/08/26 00:09:14;;;;;;;0.50;0.40;;;18.10;99.90;;;;;;5038816;28;20444;-83
2023/08/26 00:11:43;;;;;;;0.50;0.30;;;18.20;99.90;;;;;;5038772;28;20546;-84
2023/08/26 00:14:10;;;;;;;0.50;0.40;;;18.20;99.90;;;;;;5038409;28;20920;-83
2023/08/26 00:16:36;;;;;;;0.50;0.30;;;18.20;99.90;;;;;;5038943;28;20478;-83
2023/08/26 00:19:03;;;;;;;0.50;0.30;;;18.20;99.90;;;;;;5038300;28;20453;-82
2023/08/26 00:21:31;;;;;;;0.50;0.30;;;18.20;99.90;;;;;;5038836;28;20555;-83
2023/08/26 00:23:58;;;;;;;0.50;0.30;;;18.10;99.90;;;;;;5039023;28;20480;-82
2023/08/26 00:26:25;;;;;;;0.50;0.40;;;18.10;99.90;;;;;;5038941;28;20476;-83
2023/08/26 00:28:54;;;;;;;0.50;0.30;;;18.20;99.90;;;;;;5038990;28;20440;-83
2023/08/26 00:31:22;;;;;;;0.50;0.30;;;18.20;99.90;;;;;;5039128;28;20457;-83
2023/08/26 00:33:48;;;;;;;0.50;0.40;;;18.20;99.90;;;;;;5039389;28;20803;-83
2023/08/26 00:36:15;;;;;;;0.50;0.40;;;18.20;99.90;;;;;;5038752;28;20457;-84
2023/08/26 00:38:42;;;;;;;0.50;0.33;;;18.20;99.90;;;;;;5038846;28;20463;-82
2023/08/26 00:41:09;;;;;;;0.70;0.67;;;18.20;99.90;;;;;;5037879;28;20522;-83
2023/08/26 00:43:37;;;;;;;3.90;1.40;;;18.20;99.90;;;;;;5038606;28;20445;-83
2023/08/26 00:46:05;;;;;;;1.43;1.13;;;18.20;99.90;;;;;;5037842;28;20502;-82
2023/08/26 00:48:32;;;;;;;0.60;0.60;;;18.10;99.90;;;;;;5037541;28;20451;-83
2023/08/26 00:50:59;;;;;;;0.50;0.50;;;18.10;99.90;;;;;;5038156;28;20540;-83
2023/08/26 00:53:26;;;;;;;0.50;0.30;;;18.10;99.90;;;;;;5037924;28;20443;-82
2023/08/26 00:55:53;;;;;;;0.50;0.30;;;18.00;99.90;;;;;;5038115;28;20436;-83
2023/08/26 00:58:21;;;;;;;0.60;0.60;;;17.90;99.90;;;;;;5036995;28;20484;-82
2023/08/26 01:00:48;;;;;;;1.10;1.10;;;18.00;99.90;;;;;;5037390;28;20471;-82
2023/08/26 01:03:17;;;;;;;0.50;0.30;;;17.90;99.90;;;;;;5037407;28;20448;-81
2023/08/26 01:05:44;;;;;;;0.50;0.40;;;17.90;99.90;;;;;;5036667;28;20444;-83
2023/08/26 01:08:12;;;;;;;0.50;0.30;;;17.90;99.90;;;;;;5036791;28;20436;-82
2023/08/26 01:10:51;;;;;;;1.10;1.10;;;17.90;99.90;;;;;;5036725;28;20464;-83
2023/08/26 01:13:26;;;;;;;0.50;0.40;;;17.80;99.90;;;;;;5036559;28;20448;-83
2023/08/26 01:15:53;;;;;;;5.13;0.93;;;17.80;99.90;;;;;;5036736;28;20539;-82
2023/08/26 01:18:22;;;;;;;4.53;4.13;;;17.80;99.90;;;;;;5036349;28;20570;-82
2023/08/26 01:20:49;;;;;;;0.50;0.40;;;17.70;99.90;;;;;;5036731;28;20461;-82
2023/08/26 01:23:20;;;;;;;1.23;1.23;;;17.70;99.90;;;;;;5036232;28;20441;-83
2023/08/26 01:25:48;;;;;;;0.50;0.30;;;17.70;99.90;;;;;;5037337;28;20465;-84
2023/08/26 01:28:15;;;;;;;0.50;0.40;;;17.60;99.90;;;;;;5036300;28;20519;-82
2023/08/26 01:30:42;;;;;;;0.50;0.30;;;17.60;99.90;;;;;;5035979;28;20455;-83
2023/08/26 01:33:16;;;;;;;0.50;0.30;;;17.60;99.90;;;;;;5036102;28;20530;-82
2023/08/26 01:35:46;;;;;;;1.00;1.00;;;17.60;99.90;;;;;;5036364;28;20444;-82
2023/08/26 01:38:17;;;;;;;0.50;0.40;;;17.50;99.90;;;;;;5035993;28;20476;-82
2023/08/26 01:40:53;;;;;;;0.50;0.33;;;17.50;99.90;;;;;;5036528;28;20460;-83
2023/08/26 01:43:22;;;;;;;0.50;0.50;;;17.50;99.90;;;;;;5036673;28;20447;-82
2023/08/26 01:45:49;;;;;;;0.50;0.40;;;17.50;99.90;;;;;;5036874;28;20448;-82
2023/08/26 01:48:16;;;;;;;0.50;0.40;;;17.50;99.90;;;;;;5034726;28;20958;-83
2023/08/26 01:50:42;;;;;;;0.50;0.40;;;17.50;99.90;;;;;;5030166;28;21054;-82
2023/08/26 01:53:09;;;;;;;0.60;0.60;;;17.40;99.90;;;;;;5037372;28;20452;-83
2023/08/26 01:55:36;;;;;;;0.50;0.30;;;17.40;99.90;;;;;;5037884;28;20954;-83
2023/08/26 01:58:04;;;;;;;0.73;0.73;;;17.40;99.90;;;;;;5037833;28;20502;-83
2023/08/26 02:00:31;;;;;;;2.87;0.80;;;17.40;99.90;;;;;;5037351;28;20910;-82
2023/08/26 02:02:58;;;;;;;0.50;0.40;;;17.40;99.90;;;;;;5037473;28;20444;-84
2023/08/26 02:05:25;;;;;;;0.83;0.83;;;17.40;99.90;;;;;;5037384;28;20448;-83
2023/08/26 02:07:52;;;;;;;2.03;1.10;;;17.30;99.90;;;;;;5037361;28;20432;-82
2023/08/26 02:10:18;;;;;;;0.97;0.97;;;17.20;99.90;;;;;;5036231;28;20467;-83
2023/08/26 02:12:45;;;;;;;0.50;0.40;;;17.00;99.90;;;;;;5037625;28;20815;-82
2023/08/26 02:15:13;;;;;;;0.83;0.73;;;16.80;99.90;;;;;;5037047;28;20442;-82
2023/08/26 02:17:41;;;;;;;0.73;0.73;;;16.60;99.90;;;;;;5036647;28;20471;-83
2023/08/26 02:20:09;;;;;;;0.67;0.67;;;16.50;99.90;;;;;;5037710;28;20447;-82
2023/08/26 02:22:36;;;;;;;1.20;0.90;;;16.30;99.90;;;;;;5019819;28;20447;-82
2023/08/26 02:25:03;;;;;;;0.50;0.40;;;16.10;99.90;;;;;;5037278;28;20447;-82
2023/08/26 02:27:29;;;;;;;2.70;1.73;;;15.90;99.90;;;;;;5036060;28;20806;-82
2023/08/26 02:29:56;;;;;;;0.50;0.40;;;15.70;99.90;;;;;;5035910;28;20444;-82
2023/08/26 02:32:24;;;;;;;0.50;0.40;;;15.60;99.90;;;;;;5027815;28;20490;-82
2023/08/26 02:34:51;;;;;;;0.60;0.40;;;15.40;99.90;;;;;;5036339;28;20440;-83
2023/08/26 02:37:18;;;;;;;0.60;0.60;;;15.30;99.90;;;;;;5036230;28;20481;-82
2023/08/26 02:39:45;;;;;;;0.50;0.40;;;15.10;99.90;;;;;;5036451;28;20935;-82
2023/08/26 02:42:12;;;;;;;0.50;0.40;;;15.00;99.90;;;;;;5036159;28;20527;-82
2023/08/26 02:44:39;;;;;;;1.23;1.13;;;14.90;99.90;;;;;;5028298;28;20451;-83
2023/08/26 02:47:06;;;;;;;0.50;0.40;;;14.80;99.90;;;;;;5038401;28;20448;-82
2023/08/26 02:49:34;;;;;;;0.50;0.40;;;14.80;99.90;;;;;;5037610;28;20459;-82
2023/08/26 02:52:01;;;;;;;0.50;0.40;;;14.70;99.90;;;;;;5038208;28;20467;-82
2023/08/26 02:54:27;;;;;;;0.50;0.50;;;14.60;99.90;;;;;;5037088;28;20444;-82
2023/08/26 02:56:54;;;;;;;0.50;0.37;;;14.60;99.90;;;;;;5035724;28;20446;-82
2023/08/26 02:59:21;;;;;;;0.50;0.40;;;14.60;99.90;;;;;;5035531;28;20452;-82
2023/08/26 03:01:48;;;;;;;0.50;0.40;;;14.50;99.90;;;;;;5036014;28;20672;-83
2023/08/26 03:04:14;;;;;;;0.50;0.40;;;14.50;99.90;;;;;;5035661;28;20456;-83
2023/08/26 03:06:42;;;;;;;0.50;0.40;;;14.40;99.90;;;;;;5035277;28;20442;-82
2023/08/26 03:09:10;;;;;;;0.50;0.40;;;14.50;99.90;;;;;;5034489;28;20440;-82
2023/08/26 03:11:37;;;;;;;0.60;0.50;;;14.50;99.90;;;;;;5035552;28;20467;-83
2023/08/26 03:14:03;;;;;;;0.50;0.40;;;14.40;99.90;;;;;;5035352;28;20452;-83
2023/08/26 03:16:30;;;;;;;0.50;0.40;;;14.30;99.90;;;;;;5034989;28;20439;-82
2023/08/26 03:18:57;;;;;;;0.50;0.40;;;14.40;99.90;;;;;;5034885;28;20533;-81
2023/08/26 03:21:24;;;;;;;0.50;0.40;;;14.40;99.90;;;;;;5034536;28;20471;-82
2023/08/26 03:23:52;;;;;;;0.50;0.40;;;14.30;99.90;;;;;;5035044;28;20463;-83
2023/08/26 03:26:19;;;;;;;0.50;0.40;;;14.30;99.90;;;;;;5034936;28;20453;-78
2023/08/26 03:28:46;;;;;;;0.50;0.40;;;14.40;99.90;;;;;;5035170;28;20441;-82
2023/08/26 03:31:13;;;;;;;0.70;0.50;;;14.40;99.90;;;;;;5034786;28;20548;-79
2023/08/26 03:33:40;;;;;;;0.50;0.40;;;14.30;99.90;;;;;;5034721;28;20450;-81
2023/08/26 03:36:07;;;;;;;0.60;0.40;;;14.30;99.90;;;;;;5034801;28;20531;-82
2023/08/26 03:38:35;;;;;;;0.50;0.40;;;14.30;99.90;;;;;;5033962;28;20492;-81
2023/08/26 03:41:04;;;;;;;0.50;0.40;;;14.20;99.90;;;;;;5034292;28;20464;-82
2023/08/26 03:43:31;;;;;;;0.50;0.40;;;14.20;99.90;;;;;;5034570;28;20552;-82
2023/08/26 03:45:58;;;;;;;0.50;0.40;;;14.20;99.90;;;;;;5034789;28;20451;-81
2023/08/26 03:48:25;;;;;;;0.50;0.40;;;14.10;99.90;;;;;;5034527;28;20954;-81
2023/08/26 03:50:52;;;;;;;0.50;0.40;;;14.10;99.90;;;;;;5034440;28;20986;-82
2023/08/26 03:53:19;;;;;;;0.50;0.40;;;14.10;99.90;;;;;;5035157;28;20436;-81
2023/08/26 03:55:46;;;;;;;0.50;0.40;;;14.10;99.90;;;;;;5034630;28;20441;-82
2023/08/26 03:58:15;;;;;;;0.60;0.40;;;14.00;99.90;;;;;;5034232;28;20865;-82
2023/08/26 04:00:42;;;;;;;0.50;0.40;;;14.00;99.90;;;;;;5033892;28;20989;-82
2023/08/26 04:03:10;;;;;;;0.50;0.50;;;13.90;99.90;;;;;;5034789;28;20460;-82
2023/08/26 04:05:37;;;;;;;0.87;0.87;;;13.90;99.90;;;;;;5033876;28;20510;-82
2023/08/26 04:08:04;;;;;;;1.80;0.50;;;13.90;99.90;;;;;;5034972;28;20427;-82
2023/08/26 04:10:31;;;;;;;0.50;0.40;;;14.00;99.90;;;;;;5025788;28;20471;-81
2023/08/26 04:13:17;;;;;;;0.50;0.40;;;13.90;99.90;;;;;;5034539;28;20446;-82
2023/08/26 04:15:45;;;;;;;0.50;0.40;;;13.90;99.90;;;;;;5034165;28;20440;-82
2023/08/26 04:18:14;;;;;;;0.50;0.40;;;13.90;99.90;;;;;;5034121;28;20480;-82
2023/08/26 04:20:42;;;;;;;0.50;0.40;;;13.90;99.90;;;;;;5033573;28;20982;-83
2023/08/26 04:23:09;;;;;;;0.50;0.40;;;13.90;99.90;;;;;;5034634;28;20455;-82
2023/08/26 04:25:36;;;;;;;0.50;0.40;;;13.80;99.90;;;;;;5034358;28;20445;-82
2023/08/26 04:28:02;;;;;;;0.50;0.40;;;13.80;99.90;;;;;;5034259;28;20532;-82
2023/08/26 04:30:29;;;;;;;0.53;0.50;;;13.90;99.90;;;;;;5033650;28;20486;-82
2023/08/26 04:32:57;;;;;;;0.93;0.83;;;13.80;99.90;;;;;;5035772;28;20447;-81
2023/08/26 04:35:25;;;;;;;0.60;0.60;;;13.80;99.90;;;;;;5037085;28;20449;-79
2023/08/26 04:37:51;;;;;;;0.50;0.40;;;13.80;99.90;;;;;;5037468;28;20475;-82
2023/08/26 04:40:18;;;;;;;2.60;2.10;;;13.80;99.90;;;;;;5037737;28;20455;-82
2023/08/26 04:42:46;;;;;;;0.80;0.80;;;13.80;99.90;;;;;;5037461;28;20443;-80
2023/08/26 04:45:14;;;;;;;1.13;1.03;;;13.80;99.90;;;;;;5037728;28;20469;-82
2023/08/26 04:47:41;;;;;;;0.50;0.40;;;13.80;99.90;;;;;;5036841;28;20507;-83
2023/08/26 04:50:11;;;;;;;0.70;0.70;;;13.80;99.90;;;;;;5037030;28;20453;-83
2023/08/26 04:55:09;;;;;;;0.50;0.40;;;13.80;99.90;;;;;;5083865;22;20476;-79
2023/08/26 04:57:35;;;;;;;0.50;0.40;;;13.80;99.90;;;;;;5069270;28;20885;-78
2023/08/26 05:00:05;;;;;;;0.50;0.40;;;13.80;99.90;;;;;;5071853;28;20450;-79
2023/08/26 05:02:32;;;;;;;0.50;0.40;;;13.80;99.90;;;;;;5068628;28;20458;-79
2023/08/26 05:04:59;;;;;;;0.50;0.40;;;13.90;99.90;;;;;;5079932;28;20469;-80
2023/08/26 05:07:27;;;;;;;0.70;0.70;;;13.80;99.90;;;;;;5078742;28;20438;-79
2023/08/26 05:09:54;;;;;;;0.50;0.40;;;13.80;99.90;;;;;;5061631;28;20439;-78
2023/08/26 05:12:22;;;;;;;0.50;0.40;;;13.80;99.90;;;;;;5077723;28;20443;-80
2023/08/26 05:14:49;;;;;;;0.50;0.40;;;13.80;99.90;;;;;;5077623;28;20461;-79
2023/08/26 05:17:16;;;;;;;0.60;0.40;;;13.90;99.90;;;;;;5071034;28;20444;-81
2023/08/26 05:19:43;;;;;;;0.50;0.40;;;13.90;99.90;;;;;;5068639;28;20475;-80
2023/08/26 05:22:09;;;;;;;0.67;0.67;;;13.90;99.90;;;;;;5077322;28;20505;-79
2023/08/26 05:24:38;;;;;;;0.50;0.40;;;13.90;99.90;;;;;;5077375;28;20462;-80
2023/08/26 05:27:05;;;;;;;0.50;0.40;;;13.90;99.90;;;;;;5079577;28;20449;-80
2023/08/26 05:29:32;;;;;;;1.73;1.57;;;14.00;99.90;;;;;;5078714;28;20825;-79
2023/08/26 05:31:58;;;;;;;18.67;1.47;;;14.00;99.90;;;;;;5078882;28;20548;-80
2023/08/26 05:34:25;;;;;;;0.80;0.80;;;14.00;99.90;;;;;;5077137;28;20467;-79
2023/08/26 05:36:52;;;;;;;0.50;0.40;;;14.10;99.90;;;;;;5076206;28;20473;-80
2023/08/26 05:39:19;;;;;;;1.73;1.63;;;14.10;99.90;;;;;;5076697;28;21029;-81
2023/08/26 05:41:47;;;;;;;0.50;0.40;;;14.20;99.90;;;;;;5076477;28;20439;-80
2023/08/26 05:44:14;;;;;;;0.50;0.40;;;14.20;99.90;;;;;;5076394;28;20462;-81
2023/08/26 05:46:40;;;;;;;0.50;0.40;;;14.30;99.90;;;;;;5075751;28;20538;-81
2023/08/26 05:49:07;;;;;;;0.50;0.40;;;14.30;99.90;;;;;;5075783;28;20451;-80
2023/08/26 05:51:34;;;;;;;0.50;0.40;;;14.60;99.90;;;;;;5067274;28;20455;-80
2023/08/26 05:54:01;;;;;;;0.50;0.40;;;14.80;99.90;;;;;;5075597;28;20524;-81
2023/08/26 05:56:27;;;;;;;0.50;0.40;;;14.90;99.90;;;;;;5075836;28;20443;-80
2023/08/26 05:58:55;;;;;;;0.50;0.40;;;15.00;99.90;;;;;;5072065;28;20482;-78
2023/08/26 06:01:22;;;;;;;0.50;0.40;;;15.10;99.90;;;;;;5071228;28;20448;-80
2023/08/26 06:03:49;;;;;;;0.50;0.40;;;15.10;99.90;;;;;;5074028;28;20468;-80
2023/08/26 06:06:16;;;;;;;0.50;0.40;;;15.10;99.90;;;;;;5075163;28;20498;-80
2023/08/26 06:08:43;;;;;;;0.50;0.40;;;15.10;99.90;;;;;;5073780;28;20435;-80
2023/08/26 06:11:09;;;;;;;1.17;1.17;;;15.20;99.90;;;;;;5074311;28;20945;-81
2023/08/26 06:13:36;;;;;;;0.50;0.40;;;15.50;99.90;;;;;;5074221;28;20833;-80
2023/08/26 06:16:05;;;;;;;0.60;0.60;;;15.80;99.90;;;;;;5075661;28;20818;-81
2023/08/26 06:18:31;;;;;;;0.50;0.40;;;16.30;99.90;;;;;;5075619;28;20472;-81
2023/08/26 06:20:58;;;;;;;0.50;0.40;;;16.50;99.90;;;;;;5059232;28;20447;-79
2023/08/26 06:23:25;;;;;;;0.50;0.40;;;16.80;99.90;;;;;;5075450;28;20472;-81
2023/08/26 06:25:53;;;;;;;0.50;0.30;;;17.20;99.90;;;;;;5075486;28;20441;-81
2023/08/26 06:28:20;;;;;;;0.70;0.70;;;17.60;99.90;;;;;;5075263;28;20435;-81
2023/08/26 06:30:47;;;;;;;0.50;0.40;;;17.90;99.90;;;;;;5073412;28;20445;-80
2023/08/26 06:33:15;;;;;;;0.50;0.30;;;17.90;99.90;;;;;;5069466;28;20568;-81
2023/08/26 06:35:47;;;;;;;1.63;1.40;;;18.10;99.90;;;;;;5075373;28;20461;-81
2023/08/26 06:38:14;;;;;;;0.50;0.40;;;18.40;99.90;;;;;;5074949;28;20846;-81
2023/08/26 06:40:40;;;;;;;0.70;0.70;;;18.60;99.90;;;;;;5075680;28;20443;-81
2023/08/26 06:43:07;;;;;;;0.50;0.40;;;18.70;99.90;;;;;;5074890;28;20603;-81
2023/08/26 06:45:34;;;;;;;0.50;0.40;;;19.00;99.90;;;;;;5074632;28;20458;-80
2023/08/26 06:48:01;;;;;;;0.50;0.50;;;19.30;99.90;;;;;;5059132;28;20445;-80
2023/08/26 06:50:29;;;;;;;0.60;0.57;;;19.10;99.90;;;;;;5075312;28;20446;-80
2023/08/26 06:52:56;;;;;;;0.50;0.40;;;19.00;99.90;;;;;;5074857;28;20454;-81
2023/08/26 06:55:23;;;;;;;0.60;0.60;;;19.30;99.90;;;;;;5074156;28;20454;-79
2023/08/26 06:57:50;;;;;;;0.50;0.40;;;19.30;99.90;;;;;;5057833;28;20489;-81
2023/08/26 07:00:17;;;;;;;0.60;0.50;;;19.30;99.90;;;;;;5074434;28;20479;-81
2023/08/26 07:02:44;;;;;;;0.50;0.40;;;19.30;99.90;;;;;;5074452;28;20447;-79
2023/08/26 07:05:11;;;;;;;0.50;0.30;;;19.60;99.90;;;;;;5074460;28;21043;-81
2023/08/26 07:07:39;;;;;;;0.50;0.30;;;19.90;99.90;;;;;;5066238;28;20439;-79
2023/08/26 07:10:07;;;;;;;0.50;0.40;;;20.20;99.90;;;;;;5074943;28;20442;-80
2023/08/26 07:12:34;;;;;;;0.50;0.40;;;20.40;99.90;;;;;;5074899;28;20439;-80
2023/08/26 07:15:01;;;;;;;1.03;1.03;;;20.10;99.90;;;;;;5070862;28;20461;-80
2023/08/26 07:17:27;;;;;;;0.50;0.30;;;20.10;99.90;;;;;;5061997;28;20529;-79
2023/08/26 07:19:54;;;;;;;0.60;0.53;;;20.00;99.90;;;;;;5073157;28;20554;-80
2023/08/26 07:22:21;;;;;;;0.50;0.40;;;20.10;99.90;;;;;;5073945;28;20812;-81
2023/08/26 07:24:49;;;;;;;0.60;0.40;;;20.20;99.90;;;;;;5073215;28;20475;-77
2023/08/26 07:27:18;;;;;;;0.50;0.30;;;20.20;99.90;;;;;;5073379;28;20435;-80
2023/08/26 07:29:44;;;;;;;0.50;0.40;;;20.50;99.90;;;;;;5073404;28;20518;-81
2023/08/26 07:32:11;;;;;;;0.50;0.50;;;21.10;99.90;;;;;;5073337;28;20825;-82
2023/08/26 07:34:38;;;;;;;0.60;0.40;;;21.30;99.90;;;;;;5074003;28;20463;-80
2023/08/26 07:37:05;;;;;;;2.80;0.80;;;21.40;99.90;;;;;;5057781;28;20445;-80
2023/08/26 07:39:32;;;;;;;0.60;0.50;;;21.10;99.90;;;;;;5073725;28;20504;-81
2023/08/26 07:42:00;;;;;;;0.50;0.30;;;21.20;99.90;;;;;;5072117;28;20451;-78
2023/08/26 07:44:26;;;;;;;3.50;0.53;;;21.90;99.90;;;;;;5068787;28;20464;-79
2023/08/26 07:46:53;;;;;;;0.50;0.30;;;22.00;99.90;;;;;;5074150;28;20432;-81
2023/08/26 07:49:20;;;;;;;0.50;0.40;;;21.90;99.90;;;;;;5068960;28;20437;-81
2023/08/26 07:51:47;;;;;;;0.50;0.30;;;22.00;99.90;;;;;;5071852;28;20477;-81
2023/08/26 07:54:13;;;;;;;0.50;0.30;;;21.70;99.90;;;;;;5074694;28;20842;-81
2023/08/26 07:56:40;;;;;;;0.50;0.47;;;22.00;99.90;;;;;;5074595;28;20446;-81
2023/08/26 07:59:08;;;;;;;0.50;0.30;;;22.50;99.90;;;;;;5057891;28;20534;-81
2023/08/26 08:01:35;;;;;;;0.50;0.40;;;22.90;99.90;;;;;;5066820;28;20451;-80
2023/08/26 08:04:02;;;;;;;0.50;0.33;;;23.10;99.90;;;;;;5074518;28;20457;-80
2023/08/26 08:06:28;;;;;;;0.50;0.30;;;23.70;99.90;;;;;;5076478;28;20450;-82
2023/08/26 08:08:55;;;;;;;0.57;0.57;;;24.30;99.90;;;;;;5078163;28;20429;-78
2023/08/26 08:11:22;;;;;;;0.90;0.83;;;23.90;99.90;;;;;;5077709;28;20464;-82
2023/08/26 08:13:49;;;;;;;0.50;0.30;;;23.50;99.90;;;;;;5077598;28;20458;-79
2023/08/26 08:16:17;;;;;;;0.50;0.30;;;23.60;99.90;;;;;;5074332;28;20445;-81
2023/08/26 08:18:44;;;;;;;0.50;0.30;;;23.50;99.90;;;;;;5078182;28;20477;-79
2023/08/26 08:21:10;;;;;;;0.50;0.30;;;23.50;99.90;;;;;;5078576;28;20455;-81
2023/08/26 08:23:38;;;;;;;0.60;0.60;;;23.40;99.90;;;;;;5070489;28;20468;-81
2023/08/26 08:26:04;;;;;;;0.50;0.30;;;22.70;99.90;;;;;;5078303;28;20962;-81
2023/08/26 08:28:31;;;;;;;0.50;0.30;;;22.20;99.90;;;;;;5078004;28;20816;-81
2023/08/26 08:30:58;;;;;;;1.57;1.07;;;22.40;99.90;;;;;;5077319;28;20462;-77
2023/08/26 08:33:26;;;;;;;0.50;0.30;;;22.00;99.90;;;;;;5077521;28;20465;-80
2023/08/26 08:35:53;;;;;;;0.50;0.30;;;21.80;99.90;;;;;;5078077;28;20500;-81
2023/08/26 08:38:20;;;;;;;0.50;0.30;;;21.50;99.90;;;;;;5077766;28;20531;-82
2023/08/26 08:40:47;;;;;;;0.50;0.30;;;21.30;99.90;;;;;;5077659;28;20489;-79
2023/08/26 08:43:14;;;;;;;0.50;0.30;;;21.20;99.90;;;;;;5077432;28;20467;-81
2023/08/26 08:45:42;;;;;;;0.50;0.30;;;21.10;99.90;;;;;;5077867;28;20830;-80
2023/08/26 08:48:09;;;;;;;0.50;0.40;;;21.30;99.90;;;;;;5077553;28;20450;-81
2023/08/26 08:50:37;;;;;;;0.50;0.30;;;21.80;99.90;;;;;;5077590;28;20441;-80
2023/08/26 08:53:06;;;;;;;0.50;0.40;;;22.60;99.90;;;;;;5074883;28;20959;-81
2023/08/26 08:55:33;;;;;;;0.50;0.33;;;23.00;99.90;;;;;;5072540;28;20527;-80
2023/08/26 08:58:02;;;;;;;0.50;0.30;;;23.00;99.90;;;;;;5068714;28;20540;-81
2023/08/26 09:00:30;;;;;;;0.97;0.97;;;23.00;99.90;;;;;;5068443;28;20476;-81
2023/08/26 09:03:00;;;;;;;0.50;0.40;;;23.30;99.90;;;;;;5076587;28;20441;-81
2023/08/26 09:05:27;;;;;;;0.50;0.30;;;23.40;99.90;;;;;;5077242;28;20437;-79
2023/08/26 09:07:55;;;;;;;0.50;0.40;;;23.50;99.90;;;;;;5076703;28;20442;-78
2023/08/26 09:10:25;;;;;;;0.50;0.40;;;23.40;99.90;;;;;;5068838;28;20443;-80
2023/08/26 09:12:52;;;;;;;0.50;0.30;;;23.50;99.90;;;;;;5068661;28;20916;-81
2023/08/26 09:15:19;;;;;;;0.50;0.40;;;23.60;99.90;;;;;;5068373;28;20445;-80
2023/08/26 09:17:46;;;;;;;0.50;0.30;;;23.80;99.90;;;;;;5076596;28;20504;-78
2023/08/26 09:20:13;;;;;;;4.00;3.70;;;24.70;99.90;;;;;;5076646;28;20991;-80
2023/08/26 09:22:40;;;;;;;4.67;0.47;;;25.40;99.90;;;;;;5076980;28;20964;-81
2023/08/26 09:25:09;;;;;;;0.50;0.30;;;25.70;96.60;;;;;;5076552;28;20465;-81
2023/08/26 09:27:42;;;;;;;0.50;0.30;;;25.20;97.40;;;;;;5077181;28;20825;-82
2023/08/26 09:30:09;;;;;;;0.50;0.40;;;25.40;96.00;;;;;;5076178;28;20827;-81
2023/08/26 09:32:38;;;;;;;0.50;0.40;;;24.70;97.70;;;;;;5076395;28;20437;-80
2023/08/26 09:35:10;;;;;;;6.13;0.53;;;24.70;96.60;;;;;;5076130;28;21019;-79
2023/08/26 09:37:37;;;;;;;0.50;0.40;;;24.10;96.10;;;;;;5077088;28;20487;-81
2023/08/26 09:40:04;;;;;;;0.50;0.40;;;24.40;96.50;;;;;;5076082;28;20478;-81
2023/08/26 09:42:32;;;;;;;0.50;0.30;;;24.60;95.50;;;;;;5076759;28;20445;-80
2023/08/26 09:44:59;;;;;;;0.50;0.30;;;24.60;95.60;;;;;;5076432;28;20481;-81
2023/08/26 09:47:28;;;;;;;0.50;0.30;;;24.90;97.50;;;;;;5076791;28;20446;-79
2023/08/26 09:49:55;;;;;;;0.50;0.30;;;25.50;95.20;;;;;;5075240;28;20438;-80
2023/08/26 09:52:22;;;;;;;0.50;0.30;;;26.60;96.40;;;;;;5069385;28;20442;-81
2023/08/26 09:54:52;;;;;;;0.60;0.60;;;27.70;93.00;;;;;;5076091;28;20493;-78
2023/08/26 09:57:19;;;;;;;0.50;0.30;;;27.50;87.20;;;;;;5060134;28;20437;-81
2023/08/26 09:59:47;;;;;;;0.50;0.30;;;26.30;90.50;;;;;;5076814;28;20476;-81
2023/08/26 10:02:20;;;;;;;0.50;0.30;;;25.10;90.80;;;;;;5075146;28;20444;-80
2023/08/26 10:04:48;;;;;;;0.50;0.30;;;25.00;94.00;;;;;;5075943;28;20458;-80
2023/08/26 10:07:15;;;;;;;2.93;0.70;;;25.80;93.50;;;;;;5076045;28;20457;-80
2023/08/26 10:09:47;;;;;;;0.50;0.30;;;26.10;91.50;;;;;;5067780;28;20438;-80
2023/08/26 10:12:19;;;;;;;1.83;1.40;;;26.10;90.60;;;;;;5067889;28;20799;-81
2023/08/26 10:14:50;;;;;;;0.83;0.40;;;26.50;91.90;;;;;;5075722;28;20459;-80
2023/08/26 10:17:21;;;;;;;0.50;0.30;;;26.90;89.60;;;;;;5068272;28;20447;-81
2023/08/26 10:19:48;;;;;;;0.50;0.40;;;25.90;90.00;;;;;;5075775;28;20478;-81
2023/08/26 10:22:15;;;;;;;0.70;0.50;;;25.20;90.20;;;;;;5075076;28;20834;-79
2023/08/26 10:24:42;;;;;;;0.50;0.30;;;25.30;90.60;;;;;;5067087;28;20467;-81
2023/08/26 10:27:10;;;;;;;0.70;0.40;;;26.00;91.90;;;;;;5066968;28;20445;-80
2023/08/26 10:29:37;;;;;;;0.50;0.37;;;26.90;87.80;;;;;;5074129;28;20444;-80
2023/08/26 10:32:18;;;;;;;0.50;0.30;;;27.20;86.10;;;;;;5075243;28;20810;-79
2023/08/26 10:34:53;;;;;;;0.50;0.30;;;27.30;84.60;;;;;;5067316;28;20466;-79
2023/08/26 10:37:21;;;;;;;0.50;0.30;;;27.00;87.90;;;;;;5075442;28;20489;-81
2023/08/26 10:39:47;;;;;;;1.87;0.73;;;27.10;83.90;;;;;;5075458;28;20484;-81
2023/08/26 10:42:16;;;;;;;0.50;0.30;;;27.10;80.70;;;;;;5074702;28;20442;-80
2023/08/26 10:44:45;;;;;;;0.50;0.30;;;26.80;86.80;;;;;;5068724;28;20459;-81
2023/08/26 10:47:12;;;;;;;0.50;0.30;;;27.10;81.40;;;;;;5073446;28;20445;-81
2023/08/26 10:49:40;;;;;;;0.50;0.30;;;27.10;80.70;;;;;;5074762;28;20434;-80
2023/08/26 10:52:16;;;;;;;0.50;0.30;;;27.40;84.00;;;;;;5075393;28;20450;-80
2023/08/26 10:54:44;;;;;;;0.50;0.30;;;27.70;85.10;;;;;;5075765;28;20458;-81
2023/08/26 10:57:10;;;;;;;0.50;0.30;;;26.80;81.30;;;;;;5067160;28;20446;-81
2023/08/26 10:59:38;;;;;;;0.50;0.40;;;27.30;86.90;;;;;;5074869;28;20850;-80
2023/08/26 11:02:08;;;;;;;0.50;0.30;;;26.90;78.30;;;;;;5075401;28;20441;-80
2023/08/26 11:04:36;;;;;;;0.60;0.40;;;26.30;83.30;;;;;;5061642;28;20869;-80
2023/08/26 11:07:05;;;;;;;0.50;0.30;;;26.00;81.90;;;;;;5064154;28;20520;-80
2023/08/26 11:09:31;;;;;;;0.50;0.30;;;26.00;84.20;;;;;;5067311;28;20434;-81
2023/08/26 11:11:58;;;;;;;0.50;0.30;;;26.70;83.00;;;;;;5075503;28;20797;-80
2023/08/26 11:14:31;;;;;;;0.50;0.30;;;26.70;83.00;;;;;;5058259;28;20456;-80
2023/08/26 11:17:02;;;;;;;0.50;0.30;;;26.40;81.50;;;;;;5058252;28;20507;-80
2023/08/26 11:19:29;;;;;;;0.50;0.40;;;26.20;82.60;;;;;;5050957;28;20431;-79
2023/08/26 11:21:57;;;;;;;0.50;0.30;;;26.00;85.00;;;;;;5067038;28;20431;-81
2023/08/26 11:24:31;;;;;;;0.50;0.30;;;26.10;84.50;;;;;;5058959;28;20974;-80
2023/08/26 11:26:59;;;;;;;0.50;0.30;;;26.70;85.20;;;;;;5072704;28;20431;-81
2023/08/26 11:29:25;;;;;;;0.50;0.40;;;26.40;80.90;;;;;;5066922;28;20453;-80
2023/08/26 11:31:52;;;;;;;0.50;0.40;;;26.40;84.30;;;;;;5074627;28;20432;-80
2023/08/26 11:34:23;;;;;;;0.50;0.40;;;25.70;82.30;;;;;;5066099;28;20474;-80
2023/08/26 11:36:52;;;;;;;0.50;0.30;;;25.60;87.30;;;;;;5074734;28;20442;-81
2023/08/26 11:39:20;;;;;;;1.33;0.47;;;26.30;85.60;;;;;;5074160;28;20528;-80
2023/08/26 11:41:49;;;;;;;0.93;0.50;;;26.70;83.60;;;;;;5069259;28;20478;-81
2023/08/26 11:44:16;;;;;;;0.50;0.30;;;26.30;82.40;;;;;;5081280;28;20466;-80
2023/08/26 11:46:43;;;;;;;0.50;0.30;;;25.40;83.70;;;;;;5081814;28;20456;-81
2023/08/26 11:49:11;;;;;;;0.60;0.50;;;24.80;88.10;;;;;;5080893;28;20438;-81
2023/08/26 11:51:41;;;;;;;0.50;0.30;;;24.70;90.70;;;;;;5067228;28;20483;-81
2023/08/26 11:54:08;;;;;;;0.50;0.30;;;24.50;90.30;;;;;;5081009;28;20467;-79
2023/08/26 11:56:36;;;;;;;0.50;0.40;;;24.10;86.90;;;;;;5073608;28;20483;-81
2023/08/26 11:59:18;;;;;;;0.50;0.40;;;24.50;91.20;;;;;;5081726;28;20587;-81
2023/08/26 12:01:45;;;;;;;0.73;0.33;;;25.40;87.10;;;;;;5068984;28;20480;-80
2023/08/26 12:04:13;;;;;;;0.50;0.30;;;25.00;84.90;;;;;;5072996;28;20463;-80
2023/08/26 12:06:40;;;;;;;0.50;0.30;;;25.20;87.50;;;;;;5076681;28;21024;-81
2023/08/26 12:09:06;;;;;;;0.50;0.30;;;25.60;82.80;;;;;;5077823;28;20445;-80
2023/08/26 12:11:35;;;;;;;0.50;0.30;;;25.70;84.20;;;;;;5081217;28;20943;-81
2023/08/26 12:14:14;;;;;;;0.50;0.30;;;27.10;87.40;;;;;;5081462;28;20465;-80
2023/08/26 12:16:42;;;;;;;0.50;0.30;;;27.70;82.60;;;;;;5059691;28;20428;-82
2023/08/26 12:19:14;;;;;;;0.50;0.30;;;28.70;81.40;;;;;;5072367;28;20451;-80
2023/08/26 12:21:41;;;;;;;0.60;0.57;;;28.90;74.70;;;;;;5065650;28;20471;-81
2023/08/26 12:24:08;;;;;;;0.50;0.30;;;28.80;75.10;;;;;;5081030;28;20497;-79
2023/08/26 12:26:37;;;;;;;0.50;0.40;;;29.00;78.50;;;;;;5077043;28;20438;-81
2023/08/26 12:29:04;;;;;;;0.50;0.30;;;29.10;73.10;;;;;;5077003;28;20451;-80
2023/08/26 12:31:34;;;;;;;0.50;0.40;;;29.00;79.10;;;;;;5080390;28;20428;-79
2023/08/26 12:34:02;;;;;;;0.50;0.30;;;29.30;77.90;;;;;;5080679;28;20457;-81
2023/08/26 12:36:30;;;;;;;0.50;0.30;;;29.70;74.20;;;;;;5072581;28;20464;-80
2023/08/26 12:38:57;;;;;;;0.50;0.40;;;29.20;73.40;;;;;;5080547;28;20432;-77
2023/08/26 12:41:23;;;;;;;0.50;0.30;;;29.30;72.50;;;;;;5062605;28;20464;-81
2023/08/26 12:43:51;;;;;;;0.50;0.30;;;28.90;75.10;;;;;;5068999;28;20486;-78
2023/08/26 12:46:17;;;;;;;0.50;0.30;;;29.20;70.70;;;;;;5077925;28;20991;-81
2023/08/26 12:48:44;;;;;;;0.50;0.30;;;28.20;72.00;;;;;;5069441;28;20436;-81
2023/08/26 12:51:12;;;;;;;0.50;0.30;;;27.00;75.00;;;;;;5070173;28;20946;-81
2023/08/26 12:53:42;;;;;;;0.50;0.33;;;26.00;80.50;;;;;;5077444;28;20465;-81